sensor_id;sensor_type;location;lat;lon;timestamp;temperature;humidity
69009;SHT31;56065;52.472;13.380;2023-11-19T00:00:06;6.05;86.30
69009;SHT31;56065;52.472;13.380;2023-11-19T00:02:40;6.03;86.49
69009;SHT31;56065;52.472;13.380;2023-11-19T00:05:05;5.93;86.78
69009;SHT31;56065;52.472;13.380;2023-11-19T00:07:35;5.95;86.61
69009;SHT31;56065;52.472;13.380;2023-11-19T00:10:01;5.93;86.84
69009;SHT31;56065;52.472;13.380;2023-11-19T00:12:39;5.98;86.55
69009;SHT31;56065;52.472;13.380;2023-11-19T00:15:05;5.95;86.59
69009;SHT31;56065;52.472;13.380;2023-11-19T00:17:31;5.96;86.82
69009;SHT31;56065;52.472;13.380;2023-11-19T00:19:57;6.00;86.45
69009;SHT31;56065;52.472;13.380;2023-11-19T00:22:22;6.02;86.06
69009;SHT31;56065;52.472;13.380;2023-11-19T00:24:48;6.06;86.02
69009;SHT31;56065;52.472;13.380;2023-11-19T00:27:13;6.00;85.86
69009;SHT31;56065;52.472;13.380;2023-11-19T00:29:39;6.06;85.97
69009;SHT31;56065;52.472;13.380;2023-11-19T00:32:04;6.06;86.10
69009;SHT31;56065;52.472;13.380;2023-11-19T00:34:30;6.10;85.92
69009;SHT31;56065;52.472;13.380;2023-11-19T00:36:56;6.07;86.01
69009;SHT31;56065;52.472;13.380;2023-11-19T00:39:21;6.13;85.85
69009;SHT31;56065;52.472;13.380;2023-11-19T00:41:47;6.14;85.82
69009;SHT31;56065;52.472;13.380;2023-11-19T00:44:13;6.11;85.99
69009;SHT31;56065;52.472;13.380;2023-11-19T00:46:39;6.05;86.03
69009;SHT31;56065;52.472;13.380;2023-11-19T00:49:04;6.14;85.83
69009;SHT31;56065;52.472;13.380;2023-11-19T00:51:30;6.10;85.65
69009;SHT31;56065;52.472;13.380;2023-11-19T00:53:57;6.14;85.63
69009;SHT31;56065;52.472;13.380;2023-11-19T00:56:22;6.14;85.73
69009;SHT31;56065;52.472;13.380;2023-11-19T00:58:47;6.19;85.58
69009;SHT31;56065;52.472;13.380;2023-11-19T01:01:13;6.16;85.03
69009;SHT31;56065;52.472;13.380;2023-11-19T01:03:38;6.19;85.21
69009;SHT31;56065;52.472;13.380;2023-11-19T01:06:04;6.13;85.13
69009;SHT31;56065;52.472;13.380;2023-11-19T01:08:30;6.05;85.05
69009;SHT31;56065;52.472;13.380;2023-11-19T01:10:55;6.14;85.11
69009;SHT31;56065;52.472;13.380;2023-11-19T01:13:20;6.14;85.18
69009;SHT31;56065;52.472;13.380;2023-11-19T01:15:46;6.17;85.40
69009;SHT31;56065;52.472;13.380;2023-11-19T01:18:12;6.24;84.93
69009;SHT31;56065;52.472;13.380;2023-11-19T01:20:38;6.17;84.67
69009;SHT31;56065;52.472;13.380;2023-11-19T01:23:03;6.16;85.00
69009;SHT31;56065;52.472;13.380;2023-11-19T01:25:29;6.20;84.89
69009;SHT31;56065;52.472;13.380;2023-11-19T01:27:54;6.23;84.83
69009;SHT31;56065;52.472;13.380;2023-11-19T01:30:22;6.24;84.58
69009;SHT31;56065;52.472;13.380;2023-11-19T01:32:47;6.27;84.49
69009;SHT31;56065;52.472;13.380;2023-11-19T01:35:13;6.23;84.35
69009;SHT31;56065;52.472;13.380;2023-11-19T01:37:39;6.34;84.41
69009;SHT31;56065;52.472;13.380;2023-11-19T01:40:05;6.26;84.14
69009;SHT31;56065;52.472;13.380;2023-11-19T01:42:36;6.26;84.16
69009;SHT31;56065;52.472;13.380;2023-11-19T01:45:03;6.30;84.60
69009;SHT31;56065;52.472;13.380;2023-11-19T01:47:31;6.26;84.53
69009;SHT31;56065;52.472;13.380;2023-11-19T01:49:57;6.21;84.91
69009;SHT31;56065;52.472;13.380;2023-11-19T01:52:23;6.27;85.06
69009;SHT31;56065;52.472;13.380;2023-11-19T01:54:49;6.23;85.05
69009;SHT31;56065;52.472;13.380;2023-11-19T01:57:15;6.20;85.25
69009;SHT31;56065;52.472;13.380;2023-11-19T01:59:41;6.14;87.46
69009;SHT31;56065;52.472;13.380;2023-11-19T02:02:07;6.14;86.43
69009;SHT31;56065;52.472;13.380;2023-11-19T02:04:32;6.10;86.55
69009;SHT31;56065;52.472;13.380;2023-11-19T02:06:58;6.13;87.55
69009;SHT31;56065;52.472;13.380;2023-11-19T02:09:24;6.13;86.74
69009;SHT31;56065;52.472;13.380;2023-11-19T02:11:49;6.09;86.59
69009;SHT31;56065;52.472;13.380;2023-11-19T02:14:17;6.05;86.63
69009;SHT31;56065;52.472;13.380;2023-11-19T02:16:43;6.02;86.66
69009;SHT31;56065;52.472;13.380;2023-11-19T02:19:08;6.00;86.98
69009;SHT31;56065;52.472;13.380;2023-11-19T02:21:35;6.05;87.02
69009;SHT31;56065;52.472;13.380;2023-11-19T02:24:04;5.99;86.65
69009;SHT31;56065;52.472;13.380;2023-11-19T02:27:02;5.96;87.14
69009;SHT31;56065;52.472;13.380;2023-11-19T02:29:28;6.02;86.60
69009;SHT31;56065;52.472;13.380;2023-11-19T02:31:53;6.10;86.41
69009;SHT31;56065;52.472;13.380;2023-11-19T02:34:20;6.16;86.47
69009;SHT31;56065;52.472;13.380;2023-11-19T02:36:47;6.17;86.80
69009;SHT31;56065;52.472;13.380;2023-11-19T02:39:12;6.21;86.31
69009;SHT31;56065;52.472;13.380;2023-11-19T02:41:38;6.23;86.30
69009;SHT31;56065;52.472;13.380;2023-11-19T02:44:05;6.19;86.25
69009;SHT31;56065;52.472;13.380;2023-11-19T02:46:31;6.26;86.46
69009;SHT31;56065;52.472;13.380;2023-11-19T02:48:57;6.29;86.47
69009;SHT31;56065;52.472;13.380;2023-11-19T02:51:22;6.37;86.38
69009;SHT31;56065;52.472;13.380;2023-11-19T02:53:48;6.29;86.37
69009;SHT31;56065;52.472;13.380;2023-11-19T02:56:13;6.34;86.41
69009;SHT31;56065;52.472;13.380;2023-11-19T02:58:51;6.41;85.88
69009;SHT31;56065;52.472;13.380;2023-11-19T03:01:26;6.40;86.24
69009;SHT31;56065;52.472;13.380;2023-11-19T03:03:56;6.44;86.04
69009;SHT31;56065;52.472;13.380;2023-11-19T03:06:23;6.45;86.11
69009;SHT31;56065;52.472;13.380;2023-11-19T03:08:48;6.41;85.96
69009;SHT31;56065;52.472;13.380;2023-11-19T03:11:14;6.48;85.96
69009;SHT31;56065;52.472;13.380;2023-11-19T03:13:40;6.40;85.79
69009;SHT31;56065;52.472;13.380;2023-11-19T03:16:05;6.50;85.82
69009;SHT31;56065;52.472;13.380;2023-11-19T03:18:31;6.33;86.52
69009;SHT31;56065;52.472;13.380;2023-11-19T03:20:56;6.44;85.94
69009;SHT31;56065;52.472;13.380;2023-11-19T03:23:24;6.34;86.14
69009;SHT31;56065;52.472;13.380;2023-11-19T03:25:52;6.40;86.20
69009;SHT31;56065;52.472;13.380;2023-11-19T03:28:18;6.37;86.45
69009;SHT31;56065;52.472;13.380;2023-11-19T03:30:43;6.36;86.76
69009;SHT31;56065;52.472;13.380;2023-11-19T03:33:09;6.44;86.76
69009;SHT31;56065;52.472;13.380;2023-11-19T03:35:34;6.45;87.51
69009;SHT31;56065;52.472;13.380;2023-11-19T03:37:59;6.42;87.81
69009;SHT31;56065;52.472;13.380;2023-11-19T03:40:26;6.36;88.22
69009;SHT31;56065;52.472;13.380;2023-11-19T03:42:51;6.29;89.42
69009;SHT31;56065;52.472;13.380;2023-11-19T03:45:16;6.19;90.00
69009;SHT31;56065;52.472;13.380;2023-11-19T03:47:42;5.98;92.80
69009;SHT31;56065;52.472;13.380;2023-11-19T03:50:08;5.99;92.14
69009;SHT31;56065;52.472;13.380;2023-11-19T03:52:34;5.89;93.07
69009;SHT31;56065;52.472;13.380;2023-11-19T03:54:59;5.75;94.41
69009;SHT31;56065;52.472;13.380;2023-11-19T03:57:25;5.68;95.43
69009;SHT31;56065;52.472;13.380;2023-11-19T03:59:50;5.66;98.18
69009;SHT31;56065;52.472;13.380;2023-11-19T04:02:17;5.58;99.27
69009;SHT31;56065;52.472;13.380;2023-11-19T04:04:43;5.51;99.42
69009;SHT31;56065;52.472;13.380;2023-11-19T04:07:08;5.51;99.27
69009;SHT31;56065;52.472;13.380;2023-11-19T04:09:34;5.44;99.89
69009;SHT31;56065;52.472;13.380;2023-11-19T04:12:00;5.45;97.06
69009;SHT31;56065;52.472;13.380;2023-11-19T04:14:26;5.38;97.42
69009;SHT31;56065;52.472;13.380;2023-11-19T04:16:52;5.41;97.38
69009;SHT31;56065;52.472;13.380;2023-11-19T04:19:18;5.49;97.47
69009;SHT31;56065;52.472;13.380;2023-11-19T04:21:43;5.55;96.88
69009;SHT31;56065;52.472;13.380;2023-11-19T04:24:09;5.56;96.26
69009;SHT31;56065;52.472;13.380;2023-11-19T04:26:42;5.56;96.04
69009;SHT31;56065;52.472;13.380;2023-11-19T04:29:12;5.59;95.53
69009;SHT31;56065;52.472;13.380;2023-11-19T04:31:38;5.59;96.00
69009;SHT31;56065;52.472;13.380;2023-11-19T04:34:03;5.63;95.08
69009;SHT31;56065;52.472;13.380;2023-11-19T04:36:28;5.65;95.05
69009;SHT31;56065;52.472;13.380;2023-11-19T04:38:55;5.59;95.44
69009;SHT31;56065;52.472;13.380;2023-11-19T04:41:20;5.56;95.39
69009;SHT31;56065;52.472;13.380;2023-11-19T04:43:45;5.56;95.90
69009;SHT31;56065;52.472;13.380;2023-11-19T04:46:11;5.61;95.71
69009;SHT31;56065;52.472;13.380;2023-11-19T04:48:36;5.69;95.45
69009;SHT31;56065;52.472;13.380;2023-11-19T04:51:04;5.73;95.63
69009;SHT31;56065;52.472;13.380;2023-11-19T04:53:30;5.79;95.43
69009;SHT31;56065;52.472;13.380;2023-11-19T04:55:55;5.76;95.46
69009;SHT31;56065;52.472;13.380;2023-11-19T04:58:20;5.75;96.03
69009;SHT31;56065;52.472;13.380;2023-11-19T05:00:45;5.70;96.01
69009;SHT31;56065;52.472;13.380;2023-11-19T05:03:11;5.68;97.15
69009;SHT31;56065;52.472;13.380;2023-11-19T05:05:36;5.61;97.46
69009;SHT31;56065;52.472;13.380;2023-11-19T05:08:02;5.58;97.90
69009;SHT31;56065;52.472;13.380;2023-11-19T05:10:27;5.61;97.61
69009;SHT31;56065;52.472;13.380;2023-11-19T05:12:52;5.58;98.60
69009;SHT31;56065;52.472;13.380;2023-11-19T05:15:18;5.51;99.99
69009;SHT31;56065;52.472;13.380;2023-11-19T05:17:43;5.55;99.99
69009;SHT31;56065;52.472;13.380;2023-11-19T05:20:09;5.44;99.99
69009;SHT31;56065;52.472;13.380;2023-11-19T05:22:40;5.48;99.99
69009;SHT31;56065;52.472;13.380;2023-11-19T05:25:06;5.45;99.99
69009;SHT31;56065;52.472;13.380;2023-11-19T05:27:31;5.45;99.99
69009;SHT31;56065;52.472;13.380;2023-11-19T05:29:56;5.39;99.99
69009;SHT31;56065;52.472;13.380;2023-11-19T05:32:22;5.45;99.99
69009;SHT31;56065;52.472;13.380;2023-11-19T05:34:47;5.34;99.99
69009;SHT31;56065;52.472;13.380;2023-11-19T05:37:12;5.48;99.99
69009;SHT31;56065;52.472;13.380;2023-11-19T05:39:38;5.48;99.99
69009;SHT31;56065;52.472;13.380;2023-11-19T05:42:03;5.54;99.99
69009;SHT31;56065;52.472;13.380;2023-11-19T05:44:28;5.54;99.99
69009;SHT31;56065;52.472;13.380;2023-11-19T05:46:54;5.49;99.99
69009;SHT31;56065;52.472;13.380;2023-11-19T05:49:19;5.44;99.99
69009;SHT31;56065;52.472;13.380;2023-11-19T05:51:45;5.49;99.99
69009;SHT31;56065;52.472;13.380;2023-11-19T05:54:11;5.48;99.99
69009;SHT31;56065;52.472;13.380;2023-11-19T05:56:36;5.49;99.99
69009;SHT31;56065;52.472;13.380;2023-11-19T05:59:03;5.47;97.51
69009;SHT31;56065;52.472;13.380;2023-11-19T06:01:35;5.42;97.78
69009;SHT31;56065;52.472;13.380;2023-11-19T06:04:00;5.49;97.88
69009;SHT31;56065;52.472;13.380;2023-11-19T06:06:26;5.89;98.06
69009;SHT31;56065;52.472;13.380;2023-11-19T06:08:52;6.05;98.08
69009;SHT31;56065;52.472;13.380;2023-11-19T06:11:17;6.14;98.16
69009;SHT31;56065;52.472;13.380;2023-11-19T06:13:46;6.21;98.25
69009;SHT31;56065;52.472;13.380;2023-11-19T06:16:12;6.19;98.31
69009;SHT31;56065;52.472;13.380;2023-11-19T06:18:38;6.34;98.36
69009;SHT31;56065;52.472;13.380;2023-11-19T06:21:03;6.50;98.42
69009;SHT31;56065;52.472;13.380;2023-11-19T06:23:29;6.87;98.47
69009;SHT31;56065;52.472;13.380;2023-11-19T06:25:54;6.82;98.53
69009;SHT31;56065;52.472;13.380;2023-11-19T06:28:20;6.87;98.60
69009;SHT31;56065;52.472;13.380;2023-11-19T06:30:45;6.85;98.77
69009;SHT31;56065;52.472;13.380;2023-11-19T06:33:13;6.78;99.99
69009;SHT31;56065;52.472;13.380;2023-11-19T06:35:39;6.79;98.05
69009;SHT31;56065;52.472;13.380;2023-11-19T06:38:04;6.60;98.19
69009;SHT31;56065;52.472;13.380;2023-11-19T06:40:31;6.52;98.09
69009;SHT31;56065;52.472;13.380;2023-11-19T06:42:56;5.95;99.11
69009;SHT31;56065;52.472;13.380;2023-11-19T06:45:22;5.86;99.43
69009;SHT31;56065;52.472;13.380;2023-11-19T06:47:47;5.85;99.99
69009;SHT31;56065;52.472;13.380;2023-11-19T06:50:13;5.79;99.99
69009;SHT31;56065;52.472;13.380;2023-11-19T06:52:40;5.89;99.99
69009;SHT31;56065;52.472;13.380;2023-11-19T06:55:05;5.82;99.99
69009;SHT31;56065;52.472;13.380;2023-11-19T06:57:31;5.96;99.99
69009;SHT31;56065;52.472;13.380;2023-11-19T06:59:57;5.95;99.99
69009;SHT31;56065;52.472;13.380;2023-11-19T07:02:24;5.99;99.99
69009;SHT31;56065;52.472;13.380;2023-11-19T07:04:49;6.03;99.99
69009;SHT31;56065;52.472;13.380;2023-11-19T07:07:15;5.96;99.99
69009;SHT31;56065;52.472;13.380;2023-11-19T07:09:40;5.98;99.99
69009;SHT31;56065;52.472;13.380;2023-11-19T07:12:06;6.09;99.99
69009;SHT31;56065;52.472;13.380;2023-11-19T07:14:31;6.09;99.99
69009;SHT31;56065;52.472;13.380;2023-11-19T07:16:57;6.10;99.99
69009;SHT31;56065;52.472;13.380;2023-11-19T07:19:22;6.11;99.99
69009;SHT31;56065;52.472;13.380;2023-11-19T07:21:48;6.20;99.99
69009;SHT31;56065;52.472;13.380;2023-11-19T07:24:13;6.24;99.99
69009;SHT31;56065;52.472;13.380;2023-11-19T07:26:46;6.33;99.99
69009;SHT31;56065;52.472;13.380;2023-11-19T07:29:13;6.31;99.99
69009;SHT31;56065;52.472;13.380;2023-11-19T07:31:38;6.38;99.99
69009;SHT31;56065;52.472;13.380;2023-11-19T07:34:04;6.41;99.74
69009;SHT31;56065;52.472;13.380;2023-11-19T07:36:31;6.42;99.87
69009;SHT31;56065;52.472;13.380;2023-11-19T07:38:57;6.45;99.61
69009;SHT31;56065;52.472;13.380;2023-11-19T07:41:23;6.48;99.67
69009;SHT31;56065;52.472;13.380;2023-11-19T07:43:50;6.48;99.99
69009;SHT31;56065;52.472;13.380;2023-11-19T07:46:16;6.60;99.79
69009;SHT31;56065;52.472;13.380;2023-11-19T07:48:45;6.65;99.58
69009;SHT31;56065;52.472;13.380;2023-11-19T07:51:12;6.63;99.22
69009;SHT31;56065;52.472;13.380;2023-11-19T07:53:38;6.68;99.24
69009;SHT31;56065;52.472;13.380;2023-11-19T07:56:04;6.72;99.12
69009;SHT31;56065;52.472;13.380;2023-11-19T07:58:29;6.68;99.21
69009;SHT31;56065;52.472;13.380;2023-11-19T08:00:55;6.77;98.93
69009;SHT31;56065;52.472;13.380;2023-11-19T08:03:20;6.82;98.89
69009;SHT31;56065;52.472;13.380;2023-11-19T08:05:47;6.87;99.20
69009;SHT31;56065;52.472;13.380;2023-11-19T08:08:12;6.92;99.01
69009;SHT31;56065;52.472;13.380;2023-11-19T08:10:38;6.99;98.98
69009;SHT31;56065;52.472;13.380;2023-11-19T08:13:05;6.99;98.73
69009;SHT31;56065;52.472;13.380;2023-11-19T08:15:31;6.98;98.82
69009;SHT31;56065;52.472;13.380;2023-11-19T08:17:56;7.05;98.57
69009;SHT31;56065;52.472;13.380;2023-11-19T08:20:22;7.12;98.86
69009;SHT31;56065;52.472;13.380;2023-11-19T08:22:47;7.16;99.08
69009;SHT31;56065;52.472;13.380;2023-11-19T08:25:12;7.33;99.05
69009;SHT31;56065;52.472;13.380;2023-11-19T08:27:38;7.47;98.60
69009;SHT31;56065;52.472;13.380;2023-11-19T08:30:05;7.54;98.32
69009;SHT31;56065;52.472;13.380;2023-11-19T08:32:31;7.57;97.95
69009;SHT31;56065;52.472;13.380;2023-11-19T08:34:56;7.69;98.28
69009;SHT31;56065;52.472;13.380;2023-11-19T08:37:22;7.70;97.90
69009;SHT31;56065;52.472;13.380;2023-11-19T08:39:48;7.69;97.95
69009;SHT31;56065;52.472;13.380;2023-11-19T08:42:13;7.81;98.21
69009;SHT31;56065;52.472;13.380;2023-11-19T08:44:39;7.88;98.34
69009;SHT31;56065;52.472;13.380;2023-11-19T08:47:04;7.99;98.33
69009;SHT31;56065;52.472;13.380;2023-11-19T08:49:30;8.08;98.00
69009;SHT31;56065;52.472;13.380;2023-11-19T08:51:55;8.18;97.73
69009;SHT31;56065;52.472;13.380;2023-11-19T08:54:20;8.31;97.92
69009;SHT31;56065;52.472;13.380;2023-11-19T08:56:48;8.41;98.06
69009;SHT31;56065;52.472;13.380;2023-11-19T08:59:13;8.45;97.62
69009;SHT31;56065;52.472;13.380;2023-11-19T09:01:40;8.42;97.20
69009;SHT31;56065;52.472;13.380;2023-11-19T09:04:06;8.43;97.80
69009;SHT31;56065;52.472;13.380;2023-11-19T09:06:31;8.42;98.18
69009;SHT31;56065;52.472;13.380;2023-11-19T09:08:57;8.45;97.67
69009;SHT31;56065;52.472;13.380;2023-11-19T09:11:25;8.60;97.96
69009;SHT31;56065;52.472;13.380;2023-11-19T09:13:51;8.94;98.24
69009;SHT31;56065;52.472;13.380;2023-11-19T09:16:16;8.90;97.74
69009;SHT31;56065;52.472;13.380;2023-11-19T09:18:42;8.91;97.54
69009;SHT31;56065;52.472;13.380;2023-11-19T09:21:07;8.96;97.63
69009;SHT31;56065;52.472;13.380;2023-11-19T09:23:32;9.27;98.22
69009;SHT31;56065;52.472;13.380;2023-11-19T09:26:04;10.16;98.78
69009;SHT31;56065;52.472;13.380;2023-11-19T09:28:30;10.95;96.83
69009;SHT31;56065;52.472;13.380;2023-11-19T09:30:55;11.15;94.35
69009;SHT31;56065;52.472;13.380;2023-11-19T09:33:21;10.96;93.67
69009;SHT31;56065;52.472;13.380;2023-11-19T09:35:46;10.92;94.49
69009;SHT31;56065;52.472;13.380;2023-11-19T09:38:12;10.89;95.18
69009;SHT31;56065;52.472;13.380;2023-11-19T09:40:37;10.84;95.10
69009;SHT31;56065;52.472;13.380;2023-11-19T09:43:04;10.84;95.47
69009;SHT31;56065;52.472;13.380;2023-11-19T09:45:32;11.36;95.34
69009;SHT31;56065;52.472;13.380;2023-11-19T09:48:02;12.38;93.98
69009;SHT31;56065;52.472;13.380;2023-11-19T09:50:28;13.25;91.78
69009;SHT31;56065;52.472;13.380;2023-11-19T09:52:53;13.51;89.72
69009;SHT31;56065;52.472;13.380;2023-11-19T09:55:19;13.06;89.75
69009;SHT31;56065;52.472;13.380;2023-11-19T09:57:45;12.56;90.91
69009;SHT31;56065;52.472;13.380;2023-11-19T10:00:13;12.52;91.71
69009;SHT31;56065;52.472;13.380;2023-11-19T10:02:40;12.52;91.70
69009;SHT31;56065;52.472;13.380;2023-11-19T10:05:07;12.21;91.99
69009;SHT31;56065;52.472;13.380;2023-11-19T10:07:33;11.99;92.44
69009;SHT31;56065;52.472;13.380;2023-11-19T10:10:00;11.60;93.72
69009;SHT31;56065;52.472;13.380;2023-11-19T10:12:26;11.52;93.80
69009;SHT31;56065;52.472;13.380;2023-11-19T10:14:55;11.52;94.88
69009;SHT31;56065;52.472;13.380;2023-11-19T10:17:21;11.78;94.47
69009;SHT31;56065;52.472;13.380;2023-11-19T10:19:46;12.08;93.35
69009;SHT31;56065;52.472;13.380;2023-11-19T10:22:12;12.25;93.76
69009;SHT31;56065;52.472;13.380;2023-11-19T10:24:39;12.25;93.41
69009;SHT31;56065;52.472;13.380;2023-11-19T10:27:08;12.24;93.09
69009;SHT31;56065;52.472;13.380;2023-11-19T10:29:37;12.11;92.88
69009;SHT31;56065;52.472;13.380;2023-11-19T10:32:05;12.52;94.02
69009;SHT31;56065;52.472;13.380;2023-11-19T10:34:31;13.25;92.68
69009;SHT31;56065;52.472;13.380;2023-11-19T10:36:56;13.44;91.14
69009;SHT31;56065;52.472;13.380;2023-11-19T10:39:22;13.35;91.12
69009;SHT31;56065;52.472;13.380;2023-11-19T10:41:49;13.35;91.38
69009;SHT31;56065;52.472;13.380;2023-11-19T10:44:31;13.61;91.22
69009;SHT31;56065;52.472;13.380;2023-11-19T10:46:59;13.58;90.51
69009;SHT31;56065;52.472;13.380;2023-11-19T10:49:24;13.58;90.50
69009;SHT31;56065;52.472;13.380;2023-11-19T10:51:50;13.44;90.73
69009;SHT31;56065;52.472;13.380;2023-11-19T10:54:19;13.27;91.53
69009;SHT31;56065;52.472;13.380;2023-11-19T10:56:44;13.25;91.45
69009;SHT31;56065;52.472;13.380;2023-11-19T10:59:13;13.15;91.14
69009;SHT31;56065;52.472;13.380;2023-11-19T11:01:50;13.04;91.63
69009;SHT31;56065;52.472;13.380;2023-11-19T11:04:23;13.08;91.93
69009;SHT31;56065;52.472;13.380;2023-11-19T11:06:51;13.25;91.38
69009;SHT31;56065;52.472;13.380;2023-11-19T11:09:16;13.40;91.65
69009;SHT31;56065;52.472;13.380;2023-11-19T11:11:46;13.43;91.06
69009;SHT31;56065;52.472;13.380;2023-11-19T11:14:12;13.47;91.02
69009;SHT31;56065;52.472;13.380;2023-11-19T11:16:43;13.47;90.85
69009;SHT31;56065;52.472;13.380;2023-11-19T11:19:10;13.66;90.18
69009;SHT31;56065;52.472;13.380;2023-11-19T11:21:37;13.43;90.06
69009;SHT31;56065;52.472;13.380;2023-11-19T11:26:56;13.37;90.54
69009;SHT31;56065;52.472;13.380;2023-11-19T11:32:16;14.44;90.01
69009;SHT31;56065;52.472;13.380;2023-11-19T11:37:32;16.20;85.35
69009;SHT31;56065;52.472;13.380;2023-11-19T11:39:58;16.93;83.80
69009;SHT31;56065;52.472;13.380;2023-11-19T11:45:02;17.75;80.49
69009;SHT31;56065;52.472;13.380;2023-11-19T11:50:09;17.84;79.34
69009;SHT31;56065;52.472;13.380;2023-11-19T11:55:35;17.86;79.99
69009;SHT31;56065;52.472;13.380;2023-11-19T11:58:02;17.60;80.50
69009;SHT31;56065;52.472;13.380;2023-11-19T12:00:31;16.85;80.39
69009;SHT31;56065;52.472;13.380;2023-11-19T12:02:59;16.21;82.26
69009;SHT31;56065;52.472;13.380;2023-11-19T12:05:25;15.73;83.24
69009;SHT31;56065;52.472;13.380;2023-11-19T12:08:01;15.26;83.90
69009;SHT31;56065;52.472;13.380;2023-11-19T12:10:29;15.01;85.18
69009;SHT31;56065;52.472;13.380;2023-11-19T12:13:01;14.61;85.07
69009;SHT31;56065;52.472;13.380;2023-11-19T12:15:27;14.51;86.12
69009;SHT31;56065;52.472;13.380;2023-11-19T12:17:54;14.33;86.47
69009;SHT31;56065;52.472;13.380;2023-11-19T12:20:21;14.26;86.76
69009;SHT31;56065;52.472;13.380;2023-11-19T12:22:47;14.24;87.30
69009;SHT31;56065;52.472;13.380;2023-11-19T12:25:15;14.29;87.11
69009;SHT31;56065;52.472;13.380;2023-11-19T12:27:48;14.15;87.18
69009;SHT31;56065;52.472;13.380;2023-11-19T12:30:32;13.99;87.41
69009;SHT31;56065;52.472;13.380;2023-11-19T12:32:57;13.78;87.84
69009;SHT31;56065;52.472;13.380;2023-11-19T12:35:23;13.62;88.51
69009;SHT31;56065;52.472;13.380;2023-11-19T12:37:50;13.66;88.53
69009;SHT31;56065;52.472;13.380;2023-11-19T12:40:25;13.45;89.41
69009;SHT31;56065;52.472;13.380;2023-11-19T12:42:52;13.33;89.83
69009;SHT31;56065;52.472;13.380;2023-11-19T12:45:21;13.37;90.48
69009;SHT31;56065;52.472;13.380;2023-11-19T12:47:48;13.45;89.76
69009;SHT31;56065;52.472;13.380;2023-11-19T12:50:15;13.53;89.07
69009;SHT31;56065;52.472;13.380;2023-11-19T12:52:42;13.59;89.21
69009;SHT31;56065;52.472;13.380;2023-11-19T12:55:27;13.78;89.03
69009;SHT31;56065;52.472;13.380;2023-11-19T12:57:53;13.65;87.90
69009;SHT31;56065;52.472;13.380;2023-11-19T13:00:21;13.64;87.88
69009;SHT31;56065;52.472;13.380;2023-11-19T13:02:48;13.62;88.76
69009;SHT31;56065;52.472;13.380;2023-11-19T13:05:25;13.76;88.10
69009;SHT31;56065;52.472;13.380;2023-11-19T13:10:30;13.71;87.55
69009;SHT31;56065;52.472;13.380;2023-11-19T13:15:26;13.72;88.09
69009;SHT31;56065;52.472;13.380;2023-11-19T13:17:52;13.79;87.06
69009;SHT31;56065;52.472;13.380;2023-11-19T13:20:18;13.72;87.09
69009;SHT31;56065;52.472;13.380;2023-11-19T13:23:00;13.58;87.85
69009;SHT31;56065;52.472;13.380;2023-11-19T13:25:27;13.61;87.79
69009;SHT31;56065;52.472;13.380;2023-11-19T13:27:53;13.58;87.71
69009;SHT31;56065;52.472;13.380;2023-11-19T13:30:18;13.47;88.17
69009;SHT31;56065;52.472;13.380;2023-11-19T13:32:44;13.44;87.45
69009;SHT31;56065;52.472;13.380;2023-11-19T13:35:12;13.50;87.95
69009;SHT31;56065;52.472;13.380;2023-11-19T13:37:38;13.45;88.02
69009;SHT31;56065;52.472;13.380;2023-11-19T13:40:04;13.45;87.87
69009;SHT31;56065;52.472;13.380;2023-11-19T13:42:30;13.44;88.39
69009;SHT31;56065;52.472;13.380;2023-11-19T13:44:55;13.34;88.26
69009;SHT31;56065;52.472;13.380;2023-11-19T13:47:21;13.35;88.53
69009;SHT31;56065;52.472;13.380;2023-11-19T13:49:47;13.40;88.46
69009;SHT31;56065;52.472;13.380;2023-11-19T13:52:12;13.34;88.36
69009;SHT31;56065;52.472;13.380;2023-11-19T13:54:37;13.24;89.00
69009;SHT31;56065;52.472;13.380;2023-11-19T13:57:03;13.23;88.54
69009;SHT31;56065;52.472;13.380;2023-11-19T13:59:30;13.20;88.82
69009;SHT31;56065;52.472;13.380;2023-11-19T14:01:57;13.11;89.37
69009;SHT31;56065;52.472;13.380;2023-11-19T14:04:22;13.14;89.11
69009;SHT31;56065;52.472;13.380;2023-11-19T14:06:48;13.08;89.30
69009;SHT31;56065;52.472;13.380;2023-11-19T14:09:13;13.06;89.66
69009;SHT31;56065;52.472;13.380;2023-11-19T14:11:38;13.03;89.82
69009;SHT31;56065;52.472;13.380;2023-11-19T14:14:04;13.04;89.77
69009;SHT31;56065;52.472;13.380;2023-11-19T14:16:29;12.97;89.93
69009;SHT31;56065;52.472;13.380;2023-11-19T14:18:55;13.07;90.29
69009;SHT31;56065;52.472;13.380;2023-11-19T14:21:20;13.06;90.10
69009;SHT31;56065;52.472;13.380;2023-11-19T14:23:46;13.04;89.92
69009;SHT31;56065;52.472;13.380;2023-11-19T14:26:11;12.92;90.33
69009;SHT31;56065;52.472;13.380;2023-11-19T14:28:37;12.97;90.15
69009;SHT31;56065;52.472;13.380;2023-11-19T14:31:03;12.99;89.63
69009;SHT31;56065;52.472;13.380;2023-11-19T14:33:29;12.93;90.00
69009;SHT31;56065;52.472;13.380;2023-11-19T14:35:54;12.94;89.95
69009;SHT31;56065;52.472;13.380;2023-11-19T14:38:19;12.96;89.34
69009;SHT31;56065;52.472;13.380;2023-11-19T14:40:45;12.89;89.23
69009;SHT31;56065;52.472;13.380;2023-11-19T14:43:10;12.86;89.29
69009;SHT31;56065;52.472;13.380;2023-11-19T14:45:36;12.83;89.05
69009;SHT31;56065;52.472;13.380;2023-11-19T14:48:01;12.83;89.11
69009;SHT31;56065;52.472;13.380;2023-11-19T14:50:27;12.73;89.25
69009;SHT31;56065;52.472;13.380;2023-11-19T14:52:53;12.70;89.23
69009;SHT31;56065;52.472;13.380;2023-11-19T14:55:18;12.67;89.19
69009;SHT31;56065;52.472;13.380;2023-11-19T14:57:44;12.70;89.20
69009;SHT31;56065;52.472;13.380;2023-11-19T15:00:10;12.72;89.42
69009;SHT31;56065;52.472;13.380;2023-11-19T15:02:40;12.67;89.14
69009;SHT31;56065;52.472;13.380;2023-11-19T15:05:06;12.66;89.54
69009;SHT31;56065;52.472;13.380;2023-11-19T15:07:32;12.59;89.88
69009;SHT31;56065;52.472;13.380;2023-11-19T15:09:57;12.63;90.03
69009;SHT31;56065;52.472;13.380;2023-11-19T15:12:22;12.52;90.28
69009;SHT31;56065;52.472;13.380;2023-11-19T15:14:48;12.57;90.03
69009;SHT31;56065;52.472;13.380;2023-11-19T15:17:13;12.56;90.46
69009;SHT31;56065;52.472;13.380;2023-11-19T15:19:39;12.56;90.35
69009;SHT31;56065;52.472;13.380;2023-11-19T15:22:05;12.53;90.27
69009;SHT31;56065;52.472;13.380;2023-11-19T15:24:31;12.45;90.44
69009;SHT31;56065;52.472;13.380;2023-11-19T15:26:56;12.41;90.61
69009;SHT31;56065;52.472;13.380;2023-11-19T15:29:22;12.32;90.82
69009;SHT31;56065;52.472;13.380;2023-11-19T15:31:48;12.28;91.03
69009;SHT31;56065;52.472;13.380;2023-11-19T15:34:14;12.21;91.40
69009;SHT31;56065;52.472;13.380;2023-11-19T15:36:39;12.20;91.44
69009;SHT31;56065;52.472;13.380;2023-11-19T15:39:04;12.12;92.05
69009;SHT31;56065;52.472;13.380;2023-11-19T15:41:30;12.11;91.80